createdAt,value
2022-09-03T00:02:33.252Z,22.93
2022-09-03T00:05:10.924Z,23.02
2022-09-03T00:07:57.722Z,23.07
2022-09-03T00:10:32.980Z,23.13
2022-09-03T00:13:04.796Z,22.95
2022-09-03T00:15:34.479Z,22.87
2022-09-03T00:18:07.206Z,23.00
2022-09-03T00:20:42.498Z,22.91
2022-09-03T00:23:17.114Z,21.94
2022-09-03T00:25:50.671Z,22.72
2022-09-03T00:28:21.553Z,22.89
2022-09-03T00:30:57.099Z,22.76
2022-09-03T00:33:33.009Z,22.80
2022-09-03T00:36:02.361Z,22.70
2022-09-03T00:38:30.286Z,22.71
2022-09-03T00:41:07.919Z,22.62
2022-09-03T00:43:58.574Z,22.52
2022-09-03T00:46:41.913Z,22.41
2022-09-03T00:49:23.673Z,22.20
2022-09-03T00:52:06.987Z,22.21
2022-09-03T00:54:36.500Z,22.26
2022-09-03T00:57:18.167Z,22.37
2022-09-03T01:00:00.839Z,22.39
2022-09-03T01:02:57.816Z,22.26
2022-09-03T01:06:03.398Z,22.12
2022-09-03T01:08:52.343Z,21.95
2022-09-03T01:11:33.345Z,22.14
2022-09-03T01:14:06.409Z,22.09
2022-09-03T01:16:44.950Z,22.03
2022-09-03T01:19:39.875Z,22.04
2022-09-03T01:22:31.584Z,22.11
2022-09-03T01:25:04.740Z,22.14
2022-09-03T01:27:50.322Z,22.14
2022-09-03T01:30:24.195Z,22.18
2022-09-03T01:33:04.194Z,22.02
2022-09-03T01:35:47.659Z,21.80
2022-09-03T01:38:26.740Z,21.60
2022-09-03T01:41:49.242Z,21.72
2022-09-03T01:44:40.315Z,22.26
2022-09-03T01:47:21.909Z,22.25
2022-09-03T01:49:59.406Z,22.29
2022-09-03T01:52:52.272Z,22.04
2022-09-03T01:55:31.849Z,22.16
2022-09-03T01:58:11.865Z,22.12
2022-09-03T02:00:42.768Z,22.18
2022-09-03T02:03:12.223Z,22.13
2022-09-03T02:05:39.172Z,22.03
2022-09-03T02:08:08.861Z,21.83
2022-09-03T02:10:45.397Z,22.07
2022-09-03T02:13:23.001Z,21.96
2022-09-03T02:15:52.712Z,21.67
2022-09-03T02:18:26.873Z,21.90
2022-09-03T02:20:54.410Z,21.72
2022-09-03T02:23:27.818Z,21.52
2022-09-03T02:26:01.314Z,21.47
2022-09-03T02:28:32.501Z,21.67
2022-09-03T02:30:59.032Z,21.60
2022-09-03T02:33:26.221Z,21.17
2022-09-03T02:35:53.391Z,21.70
2022-09-03T02:38:26.112Z,21.75
2022-09-03T02:40:56.026Z,21.80
2022-09-03T02:43:30.942Z,21.41
2022-09-03T02:46:02.067Z,21.64
2022-09-03T02:48:28.554Z,21.53
2022-09-03T02:50:54.982Z,21.69
2022-09-03T02:53:21.620Z,21.17
2022-09-03T02:55:48.140Z,21.68
2022-09-03T02:58:14.586Z,21.59
2022-09-03T03:00:41.031Z,21.89
2022-09-03T03:03:07.540Z,21.88
2022-09-03T03:05:47.206Z,21.52
2022-09-03T03:08:15.351Z,21.86
2022-09-03T03:10:45.088Z,21.73
2022-09-03T03:13:12.563Z,21.78
2022-09-03T03:15:39.229Z,21.15
2022-09-03T03:18:07.475Z,21.06
2022-09-03T03:20:34.369Z,21.61
2022-09-03T03:23:05.523Z,21.27
2022-09-03T03:25:37.018Z,21.81
2022-09-03T03:28:05.069Z,21.60
2022-09-03T03:30:32.467Z,21.29
2022-09-03T03:32:58.999Z,21.71
2022-09-03T03:35:25.710Z,21.86
2022-09-03T03:37:52.370Z,22.05
2022-09-03T03:40:20.179Z,21.71
2022-09-03T03:42:46.736Z,22.07
2022-09-03T03:45:13.205Z,22.03
2022-09-03T03:47:39.731Z,22.10
2022-09-03T03:50:06.789Z,21.96
2022-09-03T03:52:33.238Z,22.10
2022-09-03T03:54:59.727Z,21.70
2022-09-03T03:57:29.486Z,21.94
2022-09-03T03:59:55.983Z,21.72
2022-09-03T04:02:22.466Z,21.71
2022-09-03T04:04:48.980Z,22.23
2022-09-03T04:07:15.384Z,22.28
2022-09-03T04:09:41.792Z,22.30
2022-09-03T04:12:08.736Z,22.19
2022-09-03T04:14:35.405Z,22.11
2022-09-03T04:17:03.122Z,22.20
2022-09-03T04:19:30.189Z,22.11
2022-09-03T04:21:56.829Z,22.00
2022-09-03T04:24:23.880Z,22.10
2022-09-03T04:26:50.500Z,21.67
2022-09-03T04:29:18.293Z,22.18
2022-09-03T04:32:05.934Z,22.22
2022-09-03T04:34:32.679Z,22.05
2022-09-03T04:36:59.196Z,22.04
2022-09-03T04:39:26.209Z,21.73
2022-09-03T04:41:52.920Z,22.10
2022-09-03T04:44:19.448Z,22.07
2022-09-03T04:46:47.789Z,21.98
2022-09-03T04:49:16.544Z,22.03
2022-09-03T04:51:43.904Z,21.98
2022-09-03T04:54:11.123Z,21.81
2022-09-03T04:56:39.520Z,21.89
2022-09-03T04:59:08.838Z,21.82
2022-09-03T05:01:37.559Z,21.94
2022-09-03T05:04:05.102Z,21.96
2022-09-03T05:06:33.711Z,21.83
2022-09-03T05:09:00.961Z,21.39
2022-09-03T05:11:29.127Z,21.96
2022-09-03T05:13:58.604Z,22.07
2022-09-03T05:16:28.164Z,21.54
2022-09-03T05:18:56.655Z,21.53
2022-09-03T05:21:24.459Z,22.11
2022-09-03T05:23:51.953Z,21.48
2022-09-03T05:26:26.668Z,21.77
2022-09-03T05:28:57.505Z,22.13
2022-09-03T05:31:26.668Z,22.26
2022-09-03T05:33:58.328Z,22.30
2022-09-03T05:36:26.642Z,22.28
2022-09-03T05:38:56.467Z,21.83
2022-09-03T05:41:26.571Z,21.85
2022-09-03T05:43:59.028Z,21.89
2022-09-03T05:46:31.472Z,22.00
2022-09-03T05:49:02.367Z,22.34
2022-09-03T05:51:30.211Z,22.18
2022-09-03T05:53:58.031Z,22.42
2022-09-03T05:56:27.061Z,22.42
2022-09-03T05:58:56.390Z,22.50
2022-09-03T06:01:25.170Z,22.51
2022-09-03T06:04:01.037Z,22.49
2022-09-03T06:06:29.025Z,22.47
2022-09-03T06:08:59.559Z,22.32
2022-09-03T06:11:31.489Z,22.09
2022-09-03T06:14:02.686Z,22.52
2022-09-03T06:16:32.150Z,22.29
2022-09-03T06:19:02.485Z,21.80
2022-09-03T06:21:29.597Z,22.64
2022-09-03T06:23:59.533Z,22.13
2022-09-03T06:26:28.536Z,22.60
2022-09-03T06:28:56.196Z,22.73
2022-09-03T06:31:23.608Z,22.75
2022-09-03T06:33:50.129Z,22.73
2022-09-03T06:36:18.934Z,22.53
2022-09-03T06:38:46.480Z,22.76
2022-09-03T06:41:21.390Z,22.84
2022-09-03T06:43:49.128Z,22.78
2022-09-03T06:46:18.036Z,22.78
2022-09-03T06:48:45.624Z,22.44
2022-09-03T06:51:33.181Z,22.50
2022-09-03T06:54:08.247Z,22.91
2022-09-03T06:56:39.822Z,21.74
2022-09-03T06:59:12.325Z,22.91
2022-09-03T07:01:41.044Z,22.60
2022-09-03T07:04:12.757Z,22.95
2022-09-03T07:06:41.985Z,22.93
2022-09-03T07:09:10.119Z,22.83
2022-09-03T07:11:37.451Z,22.96
2022-09-03T07:14:04.954Z,23.10
2022-09-03T07:16:35.727Z,23.15
2022-09-03T07:19:03.606Z,23.01
2022-09-03T07:21:33.940Z,22.84
2022-09-03T07:24:00.848Z,23.15
2022-09-03T07:26:32.309Z,23.19
2022-09-03T07:29:00.737Z,23.03
2022-09-03T07:31:31.161Z,23.06
2022-09-03T07:33:59.571Z,23.34
2022-09-03T07:36:28.732Z,23.34
2022-09-03T07:38:59.610Z,23.30
2022-09-03T07:41:28.916Z,23.50
2022-09-03T07:43:57.013Z,23.37
2022-09-03T07:46:25.687Z,23.52
2022-09-03T07:49:04.450Z,23.56
2022-09-03T07:51:33.408Z,23.54
2022-09-03T07:54:02.641Z,23.62
2022-09-03T07:56:32.434Z,23.59
2022-09-03T07:58:59.334Z,23.54
2022-09-03T08:01:28.668Z,23.81
2022-09-03T08:03:55.779Z,23.74
2022-09-03T08:06:24.462Z,23.33
2022-09-03T08:09:04.593Z,23.90
2022-09-03T08:11:33.405Z,23.31
2022-09-03T08:14:03.163Z,23.86
2022-09-03T08:16:31.878Z,23.94
2022-09-03T08:18:59.348Z,24.17
2022-09-03T08:21:27.130Z,24.22
2022-09-03T08:24:02.764Z,23.29
2022-09-03T08:26:32.095Z,23.51
2022-09-03T08:28:59.039Z,24.34
2022-09-03T08:31:26.534Z,24.35
2022-09-03T08:33:54.981Z,24.14
2022-09-03T08:36:25.291Z,23.96
2022-09-03T08:38:55.149Z,24.30
2022-09-03T08:42:08.296Z,24.75
2022-09-03T08:44:46.883Z,24.87
2022-09-03T08:47:28.442Z,25.00
2022-09-03T08:50:00.821Z,25.06
2022-09-03T08:52:49.017Z,25.19
2022-09-03T08:55:36.187Z,25.34
2022-09-03T08:58:06.788Z,25.37
2022-09-03T09:00:49.656Z,25.50
2022-09-03T09:03:42.358Z,25.61
2022-09-03T09:06:21.288Z,25.58
2022-09-03T09:09:10.883Z,25.68
2022-09-03T09:12:11.166Z,25.77
2022-09-03T09:14:49.742Z,25.92
2022-09-03T09:17:53.430Z,26.03
2022-09-03T09:20:41.695Z,25.88
2022-09-03T09:23:15.973Z,25.94
2022-09-03T09:25:48.854Z,26.24
2022-09-03T09:28:20.158Z,26.35
2022-09-03T13:14:12.463Z,32.20
2022-09-03T13:16:44.855Z,32.12
2022-09-03T13:19:26.249Z,32.24
2022-09-03T13:22:03.897Z,32.36
2022-09-03T13:24:59.213Z,32.51
2022-09-03T13:27:33.388Z,32.59
2022-09-03T13:30:03.753Z,32.68
2022-09-03T13:32:44.319Z,32.78
2022-09-03T13:35:27.482Z,32.40
2022-09-03T13:38:24.072Z,32.73
2022-09-03T13:41:19.584Z,32.75
2022-09-03T13:44:12.885Z,32.54
2022-09-03T13:46:56.166Z,33.01
2022-09-03T13:49:53.621Z,33.26
2022-09-03T13:52:31.542Z,32.89
2022-09-03T13:55:18.992Z,32.86
2022-09-03T13:58:24.871Z,33.07
2022-09-03T14:01:03.305Z,32.91
2022-09-03T14:03:48.581Z,33.04
2022-09-03T14:06:42.038Z,32.95
2022-09-03T14:09:23.844Z,33.36
2022-09-03T14:12:19.577Z,33.32
2022-09-03T14:15:00.886Z,33.16
2022-09-03T14:17:36.858Z,33.35
2022-09-03T14:20:31.282Z,33.54
2022-09-03T14:23:28.705Z,33.30
2022-09-03T14:26:03.789Z,33.02
2022-09-03T14:28:49.535Z,32.69
2022-09-03T14:31:43.926Z,32.40
2022-09-03T14:34:32.333Z,32.30
2022-09-03T14:37:23.894Z,32.34
2022-09-03T14:40:05.010Z,32.46
2022-09-03T14:42:47.713Z,32.60
2022-09-03T14:45:27.320Z,32.76
2022-09-03T14:48:12.992Z,32.86
2022-09-03T14:50:58.721Z,33.19
2022-09-03T14:53:50.469Z,33.45
2022-09-03T14:56:58.993Z,33.65
2022-09-03T14:59:56.340Z,33.54
2022-09-03T15:02:54.143Z,33.13
2022-09-03T15:05:48.561Z,32.92
2022-09-03T15:08:50.096Z,32.79
2022-09-03T15:11:27.658Z,32.57
2022-09-03T15:14:09.418Z,32.41
2022-09-03T15:16:53.903Z,32.44
2022-09-03T15:19:26.193Z,32.50
2022-09-03T15:22:09.632Z,32.49
2022-09-03T15:24:41.765Z,32.47
2022-09-03T15:27:40.381Z,32.33
2022-09-03T15:30:10.850Z,32.58
2022-09-03T15:32:57.782Z,32.51
2022-09-03T15:35:34.586Z,32.78
2022-09-03T15:38:10.876Z,32.34
2022-09-03T15:40:50.395Z,32.21
2022-09-03T15:43:22.698Z,32.20
2022-09-03T15:45:49.232Z,32.39
2022-09-03T15:48:39.160Z,32.08
2022-09-03T15:51:16.845Z,31.71
2022-09-03T15:53:55.097Z,32.78
2022-09-03T15:56:36.911Z,32.85
2022-09-03T15:59:19.774Z,33.25
2022-09-03T16:01:54.461Z,33.22
2022-09-03T16:04:59.827Z,32.22
2022-09-03T16:07:39.665Z,32.66
2022-09-03T16:10:30.492Z,32.54
2022-09-03T16:13:07.811Z,33.43
2022-09-03T16:15:41.584Z,33.50
2022-09-03T16:18:21.443Z,32.97
2022-09-03T16:21:05.265Z,33.34
2022-09-03T16:23:36.101Z,33.18
2022-09-03T16:26:13.426Z,32.24
2022-09-03T16:28:59.844Z,32.40
2022-09-03T16:31:51.063Z,32.56
2022-09-03T16:34:54.076Z,32.18
2022-09-03T16:37:40.149Z,31.88
2022-09-03T16:40:33.427Z,32.04
2022-09-03T16:43:44.654Z,31.33
2022-09-03T16:46:25.895Z,31.68
2022-09-03T16:49:38.329Z,31.78
2022-09-03T16:52:15.846Z,31.79
2022-09-03T16:55:21.992Z,31.65
2022-09-03T16:58:10.246Z,31.62
2022-09-03T17:01:10.864Z,31.81
2022-09-03T17:03:49.695Z,31.54
2022-09-03T17:06:55.077Z,31.80
2022-09-03T17:09:59.277Z,31.92
2022-09-03T17:12:48.775Z,31.65
2022-09-03T17:15:51.854Z,31.50
2022-09-03T17:18:55.465Z,30.97
2022-09-03T17:21:46.612Z,31.54
2022-09-03T17:25:29.237Z,31.42
2022-09-03T17:29:19.471Z,31.35
2022-09-03T17:31:55.088Z,31.14
2022-09-03T17:34:49.460Z,31.42
2022-09-03T17:41:24.156Z,31.29
2022-09-03T17:56:28.778Z,30.88
2022-09-03T18:02:40.457Z,30.61
2022-09-03T18:08:25.167Z,30.29
2022-09-03T18:11:02.244Z,30.06
2022-09-03T18:13:54.733Z,30.21
2022-09-03T18:16:28.115Z,30.03
2022-09-03T18:19:29.232Z,29.45
2022-09-03T18:22:17.906Z,29.57
2022-09-03T18:25:14.391Z,29.51
2022-09-03T18:28:06.637Z,29.48
2022-09-03T18:30:52.803Z,29.50
2022-09-03T18:33:43.549Z,29.48
2022-09-03T18:36:29.978Z,29.39
2022-09-03T18:39:33.394Z,29.28
2022-09-03T18:42:32.607Z,29.48
2022-09-03T18:45:56.371Z,29.47
2022-09-03T18:48:45.092Z,29.13
2022-09-03T18:51:45.439Z,29.18
2022-09-03T18:55:06.768Z,28.87
2022-09-03T18:58:26.843Z,28.72
2022-09-03T19:01:32.996Z,28.66
2022-09-03T19:04:55.138Z,28.70
2022-09-03T19:08:03.807Z,28.67
2022-09-03T19:11:13.490Z,28.93
2022-09-03T19:13:59.933Z,29.03
2022-09-03T19:16:48.138Z,29.24
2022-09-03T19:19:52.543Z,29.12
2022-09-03T19:22:56.717Z,28.92
2022-09-03T19:25:43.076Z,28.76
2022-09-03T19:29:03.836Z,28.85
2022-09-03T19:32:04.210Z,28.85
2022-09-03T19:34:55.138Z,29.01
2022-09-03T19:37:53.547Z,28.64
2022-09-03T19:40:59.808Z,28.69
2022-09-03T19:44:00.153Z,28.58
2022-09-03T19:46:51.058Z,28.72
2022-09-03T19:49:56.438Z,28.53
2022-09-03T19:53:07.687Z,28.57
2022-09-03T19:55:57.605Z,28.50
2022-09-03T19:58:46.577Z,28.58
2022-09-03T20:01:32.223Z,28.43
2022-09-03T20:04:22.392Z,28.53
2022-09-03T20:07:08.278Z,28.43
2022-09-03T20:10:00.516Z,28.44
2022-09-03T20:12:34.129Z,28.27
2022-09-03T20:15:04.432Z,28.11
2022-09-03T20:18:20.843Z,27.99
2022-09-03T20:20:47.175Z,28.01
2022-09-03T20:23:21.557Z,27.82
2022-09-03T20:26:12.389Z,27.92
2022-09-03T20:28:53.603Z,27.88
2022-09-03T20:31:27.223Z,27.93
2022-09-03T20:34:14.556Z,27.75
2022-09-03T20:36:54.376Z,27.52
2022-09-03T20:39:55.222Z,27.33
2022-09-03T20:42:44.455Z,27.19
2022-09-03T20:45:24.478Z,27.24
2022-09-03T20:48:03.531Z,26.88
2022-09-03T20:50:45.195Z,27.56
2022-09-03T20:53:43.432Z,27.42
2022-09-03T20:56:31.890Z,27.30
2022-09-03T20:59:09.210Z,27.33
2022-09-03T21:01:55.766Z,26.76
2022-09-03T21:04:51.478Z,26.80
2022-09-03T21:07:37.430Z,26.28
2022-09-03T21:10:34.009Z,26.05
2022-09-03T21:13:13.239Z,26.38
2022-09-03T21:15:57.915Z,26.56
2022-09-03T21:18:29.815Z,26.45
2022-09-03T21:21:26.265Z,25.52
2022-09-03T21:24:04.980Z,25.27
2022-09-03T21:26:39.897Z,25.54
2022-09-03T21:29:21.537Z,25.74
2022-09-03T21:31:53.750Z,25.90
2022-09-03T21:35:13.405Z,26.01
2022-09-03T21:37:44.920Z,25.75
2022-09-03T21:40:13.302Z,25.72
2022-09-03T21:43:10.805Z,25.84
2022-09-03T21:45:40.817Z,25.84
2022-09-03T21:48:21.187Z,25.43
2022-09-03T21:51:31.248Z,25.72
2022-09-03T21:54:04.862Z,25.83
2022-09-03T21:57:03.168Z,25.65
2022-09-03T21:59:52.899Z,25.78
2022-09-03T22:02:24.497Z,25.29
2022-09-03T22:04:52.370Z,25.54
2022-09-03T22:07:46.693Z,25.73
2022-09-03T22:10:46.994Z,25.65
2022-09-03T22:13:17.117Z,25.40
2022-09-03T22:15:51.255Z,25.65
2022-09-03T22:18:23.817Z,25.76
2022-09-03T22:21:36.853Z,25.72
2022-09-03T22:24:14.604Z,25.70
2022-09-03T22:27:36.292Z,25.42
2022-09-03T22:30:13.173Z,25.33
2022-09-03T22:32:48.311Z,25.66
2022-09-03T22:35:14.592Z,25.66
2022-09-03T22:38:02.787Z,25.46
2022-09-03T22:40:37.505Z,24.74
2022-09-03T22:43:39.473Z,25.11
2022-09-03T22:46:11.190Z,24.86
2022-09-03T22:48:43.389Z,24.89
2022-09-03T22:51:09.808Z,24.84
2022-09-03T22:53:45.410Z,25.07
2022-09-03T22:56:22.284Z,25.02
2022-09-03T22:58:56.974Z,24.81
2022-09-03T23:01:34.523Z,24.44
2022-09-03T23:04:16.335Z,24.73
2022-09-03T23:06:57.398Z,24.78
2022-09-03T23:09:30.164Z,24.76
2022-09-03T23:12:10.926Z,24.06
2022-09-03T23:14:48.604Z,24.63
2022-09-03T23:17:25.107Z,24.48
2022-09-03T23:22:37.190Z,24.02
2022-09-03T23:25:10.572Z,24.33
2022-09-03T23:28:10.935Z,24.64
2022-09-03T23:30:37.352Z,24.59
2022-09-03T23:33:04.131Z,24.24
2022-09-03T23:35:38.264Z,24.57
2022-09-03T23:38:27.014Z,24.55
2022-09-03T23:40:57.782Z,24.44
2022-09-03T23:44:01.513Z,24.45
2022-09-03T23:46:34.482Z,24.19
2022-09-03T23:49:09.619Z,24.23
2022-09-03T23:51:53.502Z,24.35
2022-09-03T23:54:35.582Z,24.22
2022-09-03T23:57:14.431Z,23.78
